sensor_id;sensor_type;location;lat;lon;timestamp;P1;durP1;ratioP1;P2;durP2;ratioP2
17171;SDS011;8701;50.150;8.756;2023-05-07T00:00:50;6.27;;;3.00;;
17171;SDS011;8701;50.150;8.756;2023-05-07T00:04:52;4.97;;;2.47;;
17171;SDS011;8701;50.150;8.756;2023-05-07T00:08:56;5.40;;;2.00;;
17171;SDS011;8701;50.150;8.756;2023-05-07T00:13:00;5.60;;;2.43;;
17171;SDS011;8701;50.150;8.756;2023-05-07T00:17:02;4.40;;;2.10;;
17171;SDS011;8701;50.150;8.756;2023-05-07T00:21:04;5.43;;;2.00;;
17171;SDS011;8701;50.150;8.756;2023-05-07T00:25:06;6.23;;;2.20;;
17171;SDS011;8701;50.150;8.756;2023-05-07T00:29:12;4.87;;;2.03;;
17171;SDS011;8701;50.150;8.756;2023-05-07T00:33:14;4.80;;;1.97;;
17171;SDS011;8701;50.150;8.756;2023-05-07T00:37:16;8.73;;;2.10;;
17171;SDS011;8701;50.150;8.756;2023-05-07T00:41:18;6.03;;;2.30;;
17171;SDS011;8701;50.150;8.756;2023-05-07T00:45:22;7.13;;;2.43;;
17171;SDS011;8701;50.150;8.756;2023-05-07T00:49:30;5.50;;;2.20;;
17171;SDS011;8701;50.150;8.756;2023-05-07T00:53:39;4.30;;;1.70;;
17171;SDS011;8701;50.150;8.756;2023-05-07T00:57:41;5.73;;;1.97;;
17171;SDS011;8701;50.150;8.756;2023-05-07T01:01:45;4.30;;;1.87;;
17171;SDS011;8701;50.150;8.756;2023-05-07T01:05:47;5.70;;;1.80;;
17171;SDS011;8701;50.150;8.756;2023-05-07T01:09:50;5.40;;;2.27;;
17171;SDS011;8701;50.150;8.756;2023-05-07T01:13:53;4.53;;;2.13;;
17171;SDS011;8701;50.150;8.756;2023-05-07T01:18:04;4.03;;;1.90;;
17171;SDS011;8701;50.150;8.756;2023-05-07T01:22:10;6.37;;;2.10;;
17171;SDS011;8701;50.150;8.756;2023-05-07T01:26:23;6.60;;;2.20;;
17171;SDS011;8701;50.150;8.756;2023-05-07T01:30:26;5.50;;;1.90;;
17171;SDS011;8701;50.150;8.756;2023-05-07T01:34:30;5.23;;;2.00;;
17171;SDS011;8701;50.150;8.756;2023-05-07T01:38:34;5.83;;;2.20;;
17171;SDS011;8701;50.150;8.756;2023-05-07T01:42:39;5.50;;;2.07;;
17171;SDS011;8701;50.150;8.756;2023-05-07T01:46:41;4.17;;;1.93;;
17171;SDS011;8701;50.150;8.756;2023-05-07T01:50:44;4.10;;;1.90;;
17171;SDS011;8701;50.150;8.756;2023-05-07T01:54:46;5.70;;;2.00;;
17171;SDS011;8701;50.150;8.756;2023-05-07T01:58:50;4.70;;;2.00;;
17171;SDS011;8701;50.150;8.756;2023-05-07T02:02:54;5.10;;;2.37;;
17171;SDS011;8701;50.150;8.756;2023-05-07T02:07:26;5.33;;;2.10;;
17171;SDS011;8701;50.150;8.756;2023-05-07T02:11:29;10.43;;;2.67;;
17171;SDS011;8701;50.150;8.756;2023-05-07T02:15:33;4.50;;;2.30;;
17171;SDS011;8701;50.150;8.756;2023-05-07T02:19:36;6.13;;;2.53;;
17171;SDS011;8701;50.150;8.756;2023-05-07T02:23:40;12.20;;;2.40;;
17171;SDS011;8701;50.150;8.756;2023-05-07T02:27:42;6.30;;;2.30;;
17171;SDS011;8701;50.150;8.756;2023-05-07T02:31:47;4.90;;;2.30;;
17171;SDS011;8701;50.150;8.756;2023-05-07T02:35:51;5.97;;;2.20;;
17171;SDS011;8701;50.150;8.756;2023-05-07T02:39:53;7.43;;;2.13;;
17171;SDS011;8701;50.150;8.756;2023-05-07T02:43:55;11.10;;;2.37;;
17171;SDS011;8701;50.150;8.756;2023-05-07T02:48:00;5.10;;;2.17;;
17171;SDS011;8701;50.150;8.756;2023-05-07T02:52:02;4.20;;;2.07;;
17171;SDS011;8701;50.150;8.756;2023-05-07T02:56:04;4.73;;;2.20;;
17171;SDS011;8701;50.150;8.756;2023-05-07T03:00:11;7.17;;;2.60;;
17171;SDS011;8701;50.150;8.756;2023-05-07T03:04:20;9.90;;;2.27;;
17171;SDS011;8701;50.150;8.756;2023-05-07T03:08:23;10.50;;;2.27;;
17171;SDS011;8701;50.150;8.756;2023-05-07T03:12:25;6.07;;;2.07;;
17171;SDS011;8701;50.150;8.756;2023-05-07T03:16:28;4.70;;;2.00;;
17171;SDS011;8701;50.150;8.756;2023-05-07T03:20:31;4.90;;;1.80;;
17171;SDS011;8701;50.150;8.756;2023-05-07T03:24:34;7.00;;;2.70;;
17171;SDS011;8701;50.150;8.756;2023-05-07T03:28:36;5.67;;;2.30;;
17171;SDS011;8701;50.150;8.756;2023-05-07T03:32:42;5.30;;;2.50;;
17171;SDS011;8701;50.150;8.756;2023-05-07T03:36:48;7.13;;;2.27;;
17171;SDS011;8701;50.150;8.756;2023-05-07T03:40:50;7.80;;;2.17;;
17171;SDS011;8701;50.150;8.756;2023-05-07T03:44:52;6.13;;;2.77;;
17171;SDS011;8701;50.150;8.756;2023-05-07T03:48:55;5.67;;;2.00;;
17171;SDS011;8701;50.150;8.756;2023-05-07T03:52:59;4.60;;;2.43;;
17171;SDS011;8701;50.150;8.756;2023-05-07T03:57:03;4.70;;;2.30;;
17171;SDS011;8701;50.150;8.756;2023-05-07T04:01:05;7.13;;;2.57;;
17171;SDS011;8701;50.150;8.756;2023-05-07T04:05:08;5.87;;;3.23;;
17171;SDS011;8701;50.150;8.756;2023-05-07T04:09:14;4.43;;;2.17;;
17171;SDS011;8701;50.150;8.756;2023-05-07T04:13:16;6.23;;;2.40;;
17171;SDS011;8701;50.150;8.756;2023-05-07T04:17:18;5.70;;;2.47;;
17171;SDS011;8701;50.150;8.756;2023-05-07T04:21:21;8.90;;;2.50;;
17171;SDS011;8701;50.150;8.756;2023-05-07T04:25:26;5.10;;;2.23;;
17171;SDS011;8701;50.150;8.756;2023-05-07T04:29:35;8.17;;;2.40;;
17171;SDS011;8701;50.150;8.756;2023-05-07T04:33:39;5.00;;;2.40;;
17171;SDS011;8701;50.150;8.756;2023-05-07T04:37:45;6.53;;;2.43;;
17171;SDS011;8701;50.150;8.756;2023-05-07T04:41:49;5.70;;;2.53;;
17171;SDS011;8701;50.150;8.756;2023-05-07T04:45:52;5.97;;;2.60;;
17171;SDS011;8701;50.150;8.756;2023-05-07T04:49:57;5.10;;;2.30;;
17171;SDS011;8701;50.150;8.756;2023-05-07T04:53:59;6.03;;;2.60;;
17171;SDS011;8701;50.150;8.756;2023-05-07T04:58:05;6.03;;;2.63;;
17171;SDS011;8701;50.150;8.756;2023-05-07T05:02:10;4.77;;;2.40;;
17171;SDS011;8701;50.150;8.756;2023-05-07T05:06:13;5.27;;;2.63;;
17171;SDS011;8701;50.150;8.756;2023-05-07T05:10:16;5.63;;;2.70;;
17171;SDS011;8701;50.150;8.756;2023-05-07T05:14:20;5.63;;;2.47;;
17171;SDS011;8701;50.150;8.756;2023-05-07T05:18:22;5.00;;;2.57;;
17171;SDS011;8701;50.150;8.756;2023-05-07T05:22:25;7.77;;;2.60;;
17171;SDS011;8701;50.150;8.756;2023-05-07T05:26:31;5.47;;;2.60;;
17171;SDS011;8701;50.150;8.756;2023-05-07T05:30:34;4.97;;;2.30;;
17171;SDS011;8701;50.150;8.756;2023-05-07T05:34:37;5.73;;;2.60;;
17171;SDS011;8701;50.150;8.756;2023-05-07T05:38:40;6.10;;;2.60;;
17171;SDS011;8701;50.150;8.756;2023-05-07T05:42:43;7.77;;;2.90;;
17171;SDS011;8701;50.150;8.756;2023-05-07T05:46:48;6.83;;;2.70;;
17171;SDS011;8701;50.150;8.756;2023-05-07T05:50:51;7.13;;;2.87;;
17171;SDS011;8701;50.150;8.756;2023-05-07T05:54:53;7.23;;;2.87;;
17171;SDS011;8701;50.150;8.756;2023-05-07T05:58:56;6.67;;;2.47;;
17171;SDS011;8701;50.150;8.756;2023-05-07T06:03:00;5.03;;;2.70;;
17171;SDS011;8701;50.150;8.756;2023-05-07T06:07:03;8.00;;;2.60;;
17171;SDS011;8701;50.150;8.756;2023-05-07T06:11:05;6.47;;;3.00;;
17171;SDS011;8701;50.150;8.756;2023-05-07T06:15:11;5.03;;;2.67;;
17171;SDS011;8701;50.150;8.756;2023-05-07T06:19:16;4.80;;;2.33;;
17171;SDS011;8701;50.150;8.756;2023-05-07T06:23:23;6.00;;;2.93;;
17171;SDS011;8701;50.150;8.756;2023-05-07T06:27:26;5.30;;;2.57;;
17171;SDS011;8701;50.150;8.756;2023-05-07T06:31:29;6.20;;;2.90;;
17171;SDS011;8701;50.150;8.756;2023-05-07T06:35:40;5.40;;;2.30;;
17171;SDS011;8701;50.150;8.756;2023-05-07T06:39:43;7.77;;;3.20;;
17171;SDS011;8701;50.150;8.756;2023-05-07T06:43:45;6.33;;;2.90;;
17171;SDS011;8701;50.150;8.756;2023-05-07T06:48:00;5.20;;;2.80;;
17171;SDS011;8701;50.150;8.756;2023-05-07T06:52:07;6.33;;;2.43;;
17171;SDS011;8701;50.150;8.756;2023-05-07T06:56:10;5.27;;;2.90;;
17171;SDS011;8701;50.150;8.756;2023-05-07T07:00:14;7.63;;;2.57;;
17171;SDS011;8701;50.150;8.756;2023-05-07T07:04:25;5.20;;;3.00;;
17171;SDS011;8701;50.150;8.756;2023-05-07T07:08:37;5.43;;;2.80;;
17171;SDS011;8701;50.150;8.756;2023-05-07T07:12:40;6.20;;;3.13;;
17171;SDS011;8701;50.150;8.756;2023-05-07T07:16:44;5.13;;;2.87;;
17171;SDS011;8701;50.150;8.756;2023-05-07T07:20:48;5.13;;;2.93;;
17171;SDS011;8701;50.150;8.756;2023-05-07T07:24:52;5.07;;;2.50;;
17171;SDS011;8701;50.150;8.756;2023-05-07T07:28:54;5.13;;;2.90;;
17171;SDS011;8701;50.150;8.756;2023-05-07T07:32:57;5.90;;;3.10;;
17171;SDS011;8701;50.150;8.756;2023-05-07T07:37:03;5.67;;;2.53;;
17171;SDS011;8701;50.150;8.756;2023-05-07T07:41:08;6.10;;;3.83;;
17171;SDS011;8701;50.150;8.756;2023-05-07T07:45:11;6.87;;;2.67;;
17171;SDS011;8701;50.150;8.756;2023-05-07T07:49:18;5.70;;;2.70;;
17171;SDS011;8701;50.150;8.756;2023-05-07T07:53:21;5.83;;;2.63;;
17171;SDS011;8701;50.150;8.756;2023-05-07T07:57:25;8.93;;;2.60;;
17171;SDS011;8701;50.150;8.756;2023-05-07T08:01:29;4.70;;;2.40;;
17171;SDS011;8701;50.150;8.756;2023-05-07T08:05:32;5.00;;;2.50;;
17171;SDS011;8701;50.150;8.756;2023-05-07T08:09:35;5.00;;;2.47;;
17171;SDS011;8701;50.150;8.756;2023-05-07T08:13:40;5.20;;;2.93;;
17171;SDS011;8701;50.150;8.756;2023-05-07T08:17:43;6.50;;;3.23;;
17171;SDS011;8701;50.150;8.756;2023-05-07T08:21:46;7.73;;;2.97;;
17171;SDS011;8701;50.150;8.756;2023-05-07T08:25:49;6.53;;;3.80;;
17171;SDS011;8701;50.150;8.756;2023-05-07T08:29:53;5.37;;;3.13;;
17171;SDS011;8701;50.150;8.756;2023-05-07T08:33:57;5.10;;;3.00;;
17171;SDS011;8701;50.150;8.756;2023-05-07T08:37:59;5.93;;;3.27;;
17171;SDS011;8701;50.150;8.756;2023-05-07T08:42:02;6.23;;;3.33;;
17171;SDS011;8701;50.150;8.756;2023-05-07T08:46:09;5.10;;;2.77;;
17171;SDS011;8701;50.150;8.756;2023-05-07T08:50:16;6.90;;;3.00;;
17171;SDS011;8701;50.150;8.756;2023-05-07T08:54:20;6.30;;;3.23;;
17171;SDS011;8701;50.150;8.756;2023-05-07T08:58:23;14.17;;;5.23;;
17171;SDS011;8701;50.150;8.756;2023-05-07T09:02:27;15.27;;;3.13;;
17171;SDS011;8701;50.150;8.756;2023-05-07T09:06:30;11.43;;;3.57;;
17171;SDS011;8701;50.150;8.756;2023-05-07T09:10:33;5.70;;;3.17;;
17171;SDS011;8701;50.150;8.756;2023-05-07T09:14:37;6.50;;;3.67;;
17171;SDS011;8701;50.150;8.756;2023-05-07T09:18:41;11.00;;;3.20;;
17171;SDS011;8701;50.150;8.756;2023-05-07T09:22:46;10.90;;;3.00;;
17171;SDS011;8701;50.150;8.756;2023-05-07T09:26:51;9.17;;;3.10;;
17171;SDS011;8701;50.150;8.756;2023-05-07T09:30:54;5.67;;;3.23;;
17171;SDS011;8701;50.150;8.756;2023-05-07T09:34:58;6.93;;;3.33;;
17171;SDS011;8701;50.150;8.756;2023-05-07T09:39:02;6.73;;;2.70;;
17171;SDS011;8701;50.150;8.756;2023-05-07T09:43:10;5.50;;;2.97;;
17171;SDS011;8701;50.150;8.756;2023-05-07T09:47:23;6.80;;;3.00;;
17171;SDS011;8701;50.150;8.756;2023-05-07T09:51:30;6.60;;;3.17;;
17171;SDS011;8701;50.150;8.756;2023-05-07T09:55:39;5.67;;;2.90;;
17171;SDS011;8701;50.150;8.756;2023-05-07T09:59:43;5.07;;;2.60;;
17171;SDS011;8701;50.150;8.756;2023-05-07T10:03:50;7.43;;;2.97;;
17171;SDS011;8701;50.150;8.756;2023-05-07T10:07:55;5.13;;;3.00;;
17171;SDS011;8701;50.150;8.756;2023-05-07T10:11:58;5.43;;;2.57;;
17171;SDS011;8701;50.150;8.756;2023-05-07T10:16:01;5.80;;;2.60;;
17171;SDS011;8701;50.150;8.756;2023-05-07T10:20:10;4.43;;;2.07;;
17171;SDS011;8701;50.150;8.756;2023-05-07T10:24:19;5.70;;;2.60;;
17171;SDS011;8701;50.150;8.756;2023-05-07T10:28:23;4.23;;;2.20;;
17171;SDS011;8701;50.150;8.756;2023-05-07T10:32:33;6.03;;;2.70;;
17171;SDS011;8701;50.150;8.756;2023-05-07T10:36:43;5.03;;;2.20;;
17171;SDS011;8701;50.150;8.756;2023-05-07T10:40:48;5.00;;;2.10;;
17171;SDS011;8701;50.150;8.756;2023-05-07T10:44:52;6.13;;;2.53;;
17171;SDS011;8701;50.150;8.756;2023-05-07T10:49:11;7.33;;;2.30;;
17171;SDS011;8701;50.150;8.756;2023-05-07T10:53:29;4.47;;;2.13;;
17171;SDS011;8701;50.150;8.756;2023-05-07T10:57:41;4.80;;;2.50;;
17171;SDS011;8701;50.150;8.756;2023-05-07T11:01:55;5.77;;;2.40;;
17171;SDS011;8701;50.150;8.756;2023-05-07T11:06:09;5.00;;;2.40;;
17171;SDS011;8701;50.150;8.756;2023-05-07T11:10:20;11.83;;;2.70;;
17171;SDS011;8701;50.150;8.756;2023-05-07T11:14:46;4.67;;;2.50;;
17171;SDS011;8701;50.150;8.756;2023-05-07T11:18:55;6.20;;;2.60;;
17171;SDS011;8701;50.150;8.756;2023-05-07T11:23:04;5.10;;;2.60;;
17171;SDS011;8701;50.150;8.756;2023-05-07T11:27:12;6.63;;;2.80;;
17171;SDS011;8701;50.150;8.756;2023-05-07T11:31:17;5.40;;;2.50;;
17171;SDS011;8701;50.150;8.756;2023-05-07T11:35:23;5.10;;;2.57;;
17171;SDS011;8701;50.150;8.756;2023-05-07T11:39:27;4.57;;;2.37;;
17171;SDS011;8701;50.150;8.756;2023-05-07T11:43:32;5.03;;;2.00;;
17171;SDS011;8701;50.150;8.756;2023-05-07T11:47:37;4.13;;;2.03;;
17171;SDS011;8701;50.150;8.756;2023-05-07T11:51:43;4.43;;;2.00;;
17171;SDS011;8701;50.150;8.756;2023-05-07T11:55:47;5.50;;;1.90;;
17171;SDS011;8701;50.150;8.756;2023-05-07T11:59:52;5.93;;;2.20;;
17171;SDS011;8701;50.150;8.756;2023-05-07T12:03:56;4.17;;;1.93;;
17171;SDS011;8701;50.150;8.756;2023-05-07T12:07:58;6.30;;;2.13;;
17171;SDS011;8701;50.150;8.756;2023-05-07T12:12:03;3.97;;;1.83;;
17171;SDS011;8701;50.150;8.756;2023-05-07T12:16:05;4.43;;;2.50;;
17171;SDS011;8701;50.150;8.756;2023-05-07T12:20:10;4.33;;;2.00;;
17171;SDS011;8701;50.150;8.756;2023-05-07T12:24:14;4.70;;;2.30;;
17171;SDS011;8701;50.150;8.756;2023-05-07T12:28:16;4.47;;;2.27;;
17171;SDS011;8701;50.150;8.756;2023-05-07T12:32:20;6.43;;;2.20;;
17171;SDS011;8701;50.150;8.756;2023-05-07T12:36:24;5.00;;;2.40;;
17171;SDS011;8701;50.150;8.756;2023-05-07T12:40:35;5.57;;;2.90;;
17171;SDS011;8701;50.150;8.756;2023-05-07T12:44:38;4.50;;;2.10;;
17171;SDS011;8701;50.150;8.756;2023-05-07T12:48:43;7.87;;;2.80;;
17171;SDS011;8701;50.150;8.756;2023-05-07T12:52:47;4.87;;;2.30;;
17171;SDS011;8701;50.150;8.756;2023-05-07T12:56:50;5.33;;;2.60;;
17171;SDS011;8701;50.150;8.756;2023-05-07T13:00:52;4.73;;;2.43;;
17171;SDS011;8701;50.150;8.756;2023-05-07T13:04:55;5.33;;;2.50;;
17171;SDS011;8701;50.150;8.756;2023-05-07T13:08:58;5.27;;;2.63;;
17171;SDS011;8701;50.150;8.756;2023-05-07T13:13:01;5.53;;;2.40;;
17171;SDS011;8701;50.150;8.756;2023-05-07T13:17:03;5.70;;;2.40;;
17171;SDS011;8701;50.150;8.756;2023-05-07T13:21:05;6.30;;;2.70;;
17171;SDS011;8701;50.150;8.756;2023-05-07T13:25:09;5.67;;;2.67;;
17171;SDS011;8701;50.150;8.756;2023-05-07T13:29:11;5.53;;;2.37;;
17171;SDS011;8701;50.150;8.756;2023-05-07T13:33:13;4.97;;;2.33;;
17171;SDS011;8701;50.150;8.756;2023-05-07T13:37:16;4.50;;;2.27;;
17171;SDS011;8701;50.150;8.756;2023-05-07T13:41:19;4.90;;;2.40;;
17171;SDS011;8701;50.150;8.756;2023-05-07T13:45:21;4.90;;;2.30;;
17171;SDS011;8701;50.150;8.756;2023-05-07T13:49:26;3.97;;;1.77;;
17171;SDS011;8701;50.150;8.756;2023-05-07T13:53:28;6.23;;;2.50;;
17171;SDS011;8701;50.150;8.756;2023-05-07T13:57:32;5.37;;;2.20;;
17171;SDS011;8701;50.150;8.756;2023-05-07T14:01:34;4.50;;;2.20;;
17171;SDS011;8701;50.150;8.756;2023-05-07T14:05:36;6.00;;;2.50;;
17171;SDS011;8701;50.150;8.756;2023-05-07T14:09:38;5.40;;;2.90;;
17171;SDS011;8701;50.150;8.756;2023-05-07T14:13:42;10.13;;;2.10;;
17171;SDS011;8701;50.150;8.756;2023-05-07T14:17:44;6.13;;;2.50;;
17171;SDS011;8701;50.150;8.756;2023-05-07T14:21:47;4.73;;;2.23;;
17171;SDS011;8701;50.150;8.756;2023-05-07T14:25:49;5.70;;;2.47;;
17171;SDS011;8701;50.150;8.756;2023-05-07T14:29:53;6.30;;;2.40;;
17171;SDS011;8701;50.150;8.756;2023-05-07T14:33:55;6.10;;;2.67;;
17171;SDS011;8701;50.150;8.756;2023-05-07T14:37:58;4.70;;;2.57;;
17171;SDS011;8701;50.150;8.756;2023-05-07T14:42:00;5.93;;;2.30;;
17171;SDS011;8701;50.150;8.756;2023-05-07T14:46:04;5.10;;;2.33;;
17171;SDS011;8701;50.150;8.756;2023-05-07T14:50:06;4.80;;;2.40;;
17171;SDS011;8701;50.150;8.756;2023-05-07T14:54:09;4.40;;;2.33;;
17171;SDS011;8701;50.150;8.756;2023-05-07T14:58:11;5.33;;;2.17;;
17171;SDS011;8701;50.150;8.756;2023-05-07T15:02:15;5.20;;;2.30;;
17171;SDS011;8701;50.150;8.756;2023-05-07T15:06:17;4.80;;;2.30;;
17171;SDS011;8701;50.150;8.756;2023-05-07T15:10:20;4.53;;;2.07;;
17171;SDS011;8701;50.150;8.756;2023-05-07T15:14:22;5.27;;;2.60;;
17171;SDS011;8701;50.150;8.756;2023-05-07T15:18:25;4.90;;;2.50;;
17171;SDS011;8701;50.150;8.756;2023-05-07T15:22:27;4.90;;;2.17;;
17171;SDS011;8701;50.150;8.756;2023-05-07T15:26:30;5.77;;;2.60;;
17171;SDS011;8701;50.150;8.756;2023-05-07T15:30:32;5.27;;;2.70;;
17171;SDS011;8701;50.150;8.756;2023-05-07T15:34:35;5.20;;;2.67;;
17171;SDS011;8701;50.150;8.756;2023-05-07T15:38:38;7.47;;;2.93;;
17171;SDS011;8701;50.150;8.756;2023-05-07T15:42:40;8.87;;;3.50;;
17171;SDS011;8701;50.150;8.756;2023-05-07T15:46:43;6.53;;;3.27;;
17171;SDS011;8701;50.150;8.756;2023-05-07T15:50:46;7.50;;;3.47;;
17171;SDS011;8701;50.150;8.756;2023-05-07T15:54:48;8.43;;;4.20;;
17171;SDS011;8701;50.150;8.756;2023-05-07T15:58:50;11.33;;;5.60;;
17171;SDS011;8701;50.150;8.756;2023-05-07T16:02:53;12.70;;;5.07;;
17171;SDS011;8701;50.150;8.756;2023-05-07T16:06:57;10.23;;;5.47;;
17171;SDS011;8701;50.150;8.756;2023-05-07T16:10:59;8.10;;;4.40;;
17171;SDS011;8701;50.150;8.756;2023-05-07T16:15:01;8.37;;;4.60;;
17171;SDS011;8701;50.150;8.756;2023-05-07T16:19:04;8.13;;;4.20;;
17171;SDS011;8701;50.150;8.756;2023-05-07T16:23:07;9.03;;;3.97;;
17171;SDS011;8701;50.150;8.756;2023-05-07T16:27:10;10.33;;;4.60;;
17171;SDS011;8701;50.150;8.756;2023-05-07T16:31:12;8.00;;;3.80;;
17171;SDS011;8701;50.150;8.756;2023-05-07T16:35:14;7.63;;;2.97;;
17171;SDS011;8701;50.150;8.756;2023-05-07T16:39:18;8.10;;;3.53;;
17171;SDS011;8701;50.150;8.756;2023-05-07T16:43:20;7.57;;;3.40;;
17171;SDS011;8701;50.150;8.756;2023-05-07T16:47:22;6.43;;;2.77;;
17171;SDS011;8701;50.150;8.756;2023-05-07T16:51:25;8.20;;;3.17;;
17171;SDS011;8701;50.150;8.756;2023-05-07T16:55:28;5.63;;;2.60;;
17171;SDS011;8701;50.150;8.756;2023-05-07T16:59:34;6.03;;;2.50;;
17171;SDS011;8701;50.150;8.756;2023-05-07T17:03:36;6.00;;;2.90;;
17171;SDS011;8701;50.150;8.756;2023-05-07T17:07:38;6.73;;;2.90;;
17171;SDS011;8701;50.150;8.756;2023-05-07T17:11:42;5.53;;;2.70;;
17171;SDS011;8701;50.150;8.756;2023-05-07T17:15:44;6.47;;;2.43;;
17171;SDS011;8701;50.150;8.756;2023-05-07T17:19:47;6.97;;;2.60;;
17171;SDS011;8701;50.150;8.756;2023-05-07T17:23:49;4.83;;;2.70;;
17171;SDS011;8701;50.150;8.756;2023-05-07T17:27:52;5.27;;;3.10;;
17171;SDS011;8701;50.150;8.756;2023-05-07T17:31:54;5.77;;;2.40;;
17171;SDS011;8701;50.150;8.756;2023-05-07T17:35:57;4.20;;;2.17;;
17171;SDS011;8701;50.150;8.756;2023-05-07T17:39:59;5.60;;;2.17;;
17171;SDS011;8701;50.150;8.756;2023-05-07T17:44:03;6.50;;;2.70;;
17171;SDS011;8701;50.150;8.756;2023-05-07T17:48:05;4.90;;;2.20;;
17171;SDS011;8701;50.150;8.756;2023-05-07T17:52:08;9.50;;;2.30;;
17171;SDS011;8701;50.150;8.756;2023-05-07T17:56:11;5.63;;;2.50;;
17171;SDS011;8701;50.150;8.756;2023-05-07T18:00:15;10.67;;;2.70;;
17171;SDS011;8701;50.150;8.756;2023-05-07T18:04:17;4.43;;;2.23;;
17171;SDS011;8701;50.150;8.756;2023-05-07T18:08:21;9.90;;;2.57;;
17171;SDS011;8701;50.150;8.756;2023-05-07T18:12:23;8.10;;;2.63;;
17171;SDS011;8701;50.150;8.756;2023-05-07T18:16:26;4.50;;;1.80;;
17171;SDS011;8701;50.150;8.756;2023-05-07T18:20:28;6.93;;;2.10;;
17171;SDS011;8701;50.150;8.756;2023-05-07T18:24:31;4.87;;;2.03;;
17171;SDS011;8701;50.150;8.756;2023-05-07T18:28:33;7.57;;;2.30;;
17171;SDS011;8701;50.150;8.756;2023-05-07T18:32:36;5.00;;;1.77;;
17171;SDS011;8701;50.150;8.756;2023-05-07T18:36:38;7.03;;;2.20;;
17171;SDS011;8701;50.150;8.756;2023-05-07T18:40:41;4.43;;;1.70;;
17171;SDS011;8701;50.150;8.756;2023-05-07T18:44:44;5.73;;;2.10;;
17171;SDS011;8701;50.150;8.756;2023-05-07T18:48:47;4.53;;;1.70;;
17171;SDS011;8701;50.150;8.756;2023-05-07T18:52:50;5.07;;;1.97;;
17171;SDS011;8701;50.150;8.756;2023-05-07T18:56:52;4.67;;;1.77;;
17171;SDS011;8701;50.150;8.756;2023-05-07T19:00:54;6.00;;;2.03;;
17171;SDS011;8701;50.150;8.756;2023-05-07T19:04:58;4.10;;;1.93;;
17171;SDS011;8701;50.150;8.756;2023-05-07T19:09:00;4.53;;;1.80;;
17171;SDS011;8701;50.150;8.756;2023-05-07T19:13:02;4.93;;;2.13;;
17171;SDS011;8701;50.150;8.756;2023-05-07T19:17:05;4.70;;;2.00;;
17171;SDS011;8701;50.150;8.756;2023-05-07T19:21:08;4.90;;;2.20;;
17171;SDS011;8701;50.150;8.756;2023-05-07T19:25:11;5.30;;;2.37;;
17171;SDS011;8701;50.150;8.756;2023-05-07T19:29:14;6.37;;;2.30;;
17171;SDS011;8701;50.150;8.756;2023-05-07T19:33:16;5.67;;;2.33;;
17171;SDS011;8701;50.150;8.756;2023-05-07T19:37:19;6.37;;;2.30;;
17171;SDS011;8701;50.150;8.756;2023-05-07T19:41:24;5.40;;;2.23;;
17171;SDS011;8701;50.150;8.756;2023-05-07T19:45:27;5.80;;;2.10;;
17171;SDS011;8701;50.150;8.756;2023-05-07T19:49:29;7.50;;;2.30;;
17171;SDS011;8701;50.150;8.756;2023-05-07T19:53:33;6.10;;;2.70;;
17171;SDS011;8701;50.150;8.756;2023-05-07T19:57:35;5.37;;;2.70;;
17171;SDS011;8701;50.150;8.756;2023-05-07T20:01:37;7.27;;;2.60;;
17171;SDS011;8701;50.150;8.756;2023-05-07T20:05:40;7.80;;;2.73;;
17171;SDS011;8701;50.150;8.756;2023-05-07T20:09:44;6.10;;;2.70;;
17171;SDS011;8701;50.150;8.756;2023-05-07T20:13:46;6.90;;;2.47;;
17171;SDS011;8701;50.150;8.756;2023-05-07T20:17:48;5.17;;;2.50;;
17171;SDS011;8701;50.150;8.756;2023-05-07T20:21:50;5.13;;;2.63;;
17171;SDS011;8701;50.150;8.756;2023-05-07T20:25:54;5.50;;;2.50;;
17171;SDS011;8701;50.150;8.756;2023-05-07T20:29:57;6.97;;;2.43;;
17171;SDS011;8701;50.150;8.756;2023-05-07T20:34:00;5.57;;;2.60;;
17171;SDS011;8701;50.150;8.756;2023-05-07T20:38:02;8.53;;;2.57;;
17171;SDS011;8701;50.150;8.756;2023-05-07T20:42:05;5.40;;;2.37;;
17171;SDS011;8701;50.150;8.756;2023-05-07T20:46:08;5.80;;;2.80;;
17171;SDS011;8701;50.150;8.756;2023-05-07T20:50:10;4.77;;;2.57;;
17171;SDS011;8701;50.150;8.756;2023-05-07T20:54:12;4.70;;;2.53;;
17171;SDS011;8701;50.150;8.756;2023-05-07T20:58:16;7.90;;;2.27;;
17171;SDS011;8701;50.150;8.756;2023-05-07T21:02:18;5.20;;;2.80;;
17171;SDS011;8701;50.150;8.756;2023-05-07T21:06:20;5.97;;;3.30;;
17171;SDS011;8701;50.150;8.756;2023-05-07T21:10:23;5.10;;;3.00;;
17171;SDS011;8701;50.150;8.756;2023-05-07T21:14:26;5.80;;;3.00;;
17171;SDS011;8701;50.150;8.756;2023-05-07T21:18:29;7.67;;;3.17;;
17171;SDS011;8701;50.150;8.756;2023-05-07T21:22:31;5.37;;;3.20;;
17171;SDS011;8701;50.150;8.756;2023-05-07T21:26:34;6.20;;;3.20;;
17171;SDS011;8701;50.150;8.756;2023-05-07T21:30:37;8.40;;;4.30;;
17171;SDS011;8701;50.150;8.756;2023-05-07T21:34:39;9.10;;;4.37;;
17171;SDS011;8701;50.150;8.756;2023-05-07T21:38:42;11.10;;;6.40;;
17171;SDS011;8701;50.150;8.756;2023-05-07T21:42:44;8.30;;;5.30;;
17171;SDS011;8701;50.150;8.756;2023-05-07T21:46:53;9.80;;;5.97;;
17171;SDS011;8701;50.150;8.756;2023-05-07T21:50:59;7.30;;;4.67;;
17171;SDS011;8701;50.150;8.756;2023-05-07T21:55:02;8.50;;;5.10;;
17171;SDS011;8701;50.150;8.756;2023-05-07T21:59:04;7.30;;;4.27;;
17171;SDS011;8701;50.150;8.756;2023-05-07T22:03:07;7.77;;;3.83;;
17171;SDS011;8701;50.150;8.756;2023-05-07T22:07:10;8.27;;;5.50;;
17171;SDS011;8701;50.150;8.756;2023-05-07T22:11:12;11.90;;;5.40;;
17171;SDS011;8701;50.150;8.756;2023-05-07T22:15:14;11.97;;;5.27;;
17171;SDS011;8701;50.150;8.756;2023-05-07T22:19:18;7.70;;;4.63;;
17171;SDS011;8701;50.150;8.756;2023-05-07T22:23:20;10.40;;;5.77;;
17171;SDS011;8701;50.150;8.756;2023-05-07T22:27:22;7.70;;;4.20;;
17171;SDS011;8701;50.150;8.756;2023-05-07T22:31:24;9.20;;;5.93;;
17171;SDS011;8701;50.150;8.756;2023-05-07T22:35:28;9.17;;;6.00;;
17171;SDS011;8701;50.150;8.756;2023-05-07T22:39:30;8.90;;;5.57;;
17171;SDS011;8701;50.150;8.756;2023-05-07T22:43:34;8.70;;;5.90;;
17171;SDS011;8701;50.150;8.756;2023-05-07T22:47:37;7.40;;;4.47;;
17171;SDS011;8701;50.150;8.756;2023-05-07T22:51:41;9.53;;;5.47;;
17171;SDS011;8701;50.150;8.756;2023-05-07T22:55:43;8.97;;;5.37;;
17171;SDS011;8701;50.150;8.756;2023-05-07T22:59:45;9.23;;;5.00;;
17171;SDS011;8701;50.150;8.756;2023-05-07T23:03:47;8.47;;;5.37;;
17171;SDS011;8701;50.150;8.756;2023-05-07T23:07:51;9.40;;;5.43;;
17171;SDS011;8701;50.150;8.756;2023-05-07T23:11:53;10.50;;;5.63;;
17171;SDS011;8701;50.150;8.756;2023-05-07T23:15:55;10.97;;;5.53;;
17171;SDS011;8701;50.150;8.756;2023-05-07T23:19:58;9.20;;;5.00;;
17171;SDS011;8701;50.150;8.756;2023-05-07T23:24:02;10.00;;;5.73;;
17171;SDS011;8701;50.150;8.756;2023-05-07T23:28:04;7.00;;;5.00;;
17171;SDS011;8701;50.150;8.756;2023-05-07T23:32:06;7.90;;;4.83;;
17171;SDS011;8701;50.150;8.756;2023-05-07T23:36:08;8.30;;;5.73;;
17171;SDS011;8701;50.150;8.756;2023-05-07T23:40:12;7.80;;;5.00;;
17171;SDS011;8701;50.150;8.756;2023-05-07T23:44:14;13.97;;;5.80;;
17171;SDS011;8701;50.150;8.756;2023-05-07T23:48:17;6.93;;;4.47;;
17171;SDS011;8701;50.150;8.756;2023-05-07T23:52:19;9.67;;;5.40;;
17171;SDS011;8701;50.150;8.756;2023-05-07T23:56:22;8.15;;;5.35;;
